sensor_id;sensor_type;location;lat;lon;timestamp;pressure;altitude;pressure_sealevel;temperature;humidity
69751;BME280;57335;52.288;6.056;2022-09-27T00:01:15;99570.28;;;10.26;100.00
69751;BME280;57335;52.288;6.056;2022-09-27T00:03:42;99572.34;;;10.24;100.00
69751;BME280;57335;52.288;6.056;2022-09-27T00:06:17;99554.88;;;10.13;100.00
69751;BME280;57335;52.288;6.056;2022-09-27T00:08:45;99575.78;;;10.25;100.00
69751;BME280;57335;52.288;6.056;2022-09-27T00:11:36;99573.63;;;10.22;100.00
69751;BME280;57335;52.288;6.056;2022-09-27T00:14:04;99580.13;;;10.19;100.00
69751;BME280;57335;52.288;6.056;2022-09-27T00:16:34;99572.41;;;10.12;100.00
69751;BME280;57335;52.288;6.056;2022-09-27T00:19:07;99581.19;;;10.06;100.00
69751;BME280;57335;52.288;6.056;2022-09-27T00:21:35;99580.88;;;10.03;100.00
69751;BME280;57335;52.288;6.056;2022-09-27T00:24:02;99593.47;;;10.06;100.00
69751;BME280;57335;52.288;6.056;2022-09-27T00:26:28;99585.66;;;9.94;100.00
69751;BME280;57335;52.288;6.056;2022-09-27T00:28:55;99585.91;;;9.92;100.00
69751;BME280;57335;52.288;6.056;2022-09-27T00:31:26;99592.38;;;9.90;100.00
69751;BME280;57335;52.288;6.056;2022-09-27T00:33:52;99594.00;;;9.91;100.00
69751;BME280;57335;52.288;6.056;2022-09-27T00:36:20;99604.47;;;9.91;100.00
69751;BME280;57335;52.288;6.056;2022-09-27T00:38:47;99595.38;;;9.82;100.00
69751;BME280;57335;52.288;6.056;2022-09-27T00:41:24;99610.63;;;9.85;100.00
69751;BME280;57335;52.288;6.056;2022-09-27T00:46:27;99613.59;;;9.76;100.00
69751;BME280;57335;52.288;6.056;2022-09-27T00:49:14;99619.28;;;9.73;100.00
69751;BME280;57335;52.288;6.056;2022-09-27T00:51:47;99609.16;;;9.65;100.00
69751;BME280;57335;52.288;6.056;2022-09-27T00:54:17;99614.63;;;9.64;100.00
69751;BME280;57335;52.288;6.056;2022-09-27T00:56:45;99624.16;;;9.70;100.00
69751;BME280;57335;52.288;6.056;2022-09-27T00:59:19;99609.88;;;9.61;100.00
69751;BME280;57335;52.288;6.056;2022-09-27T01:01:49;99617.44;;;9.74;100.00
69751;BME280;57335;52.288;6.056;2022-09-27T01:04:19;99610.31;;;9.69;100.00
69751;BME280;57335;52.288;6.056;2022-09-27T01:06:46;99611.78;;;9.77;100.00
69751;BME280;57335;52.288;6.056;2022-09-27T01:09:12;99609.94;;;9.77;100.00
69751;BME280;57335;52.288;6.056;2022-09-27T01:20:32;99616.78;;;9.78;100.00
69751;BME280;57335;52.288;6.056;2022-09-27T01:34:09;99630.53;;;9.74;100.00
69751;BME280;57335;52.288;6.056;2022-09-27T01:42:07;99624.97;;;9.70;100.00
69751;BME280;57335;52.288;6.056;2022-09-27T01:44:44;99608.03;;;9.61;100.00
69751;BME280;57335;52.288;6.056;2022-09-27T01:47:16;99617.94;;;9.59;100.00
69751;BME280;57335;52.288;6.056;2022-09-27T01:49:59;99627.47;;;9.65;100.00
69751;BME280;57335;52.288;6.056;2022-09-27T01:52:34;99620.69;;;9.64;100.00
69751;BME280;57335;52.288;6.056;2022-09-27T01:55:06;99612.22;;;9.62;100.00
69751;BME280;57335;52.288;6.056;2022-09-27T01:57:36;99613.41;;;9.54;100.00
69751;BME280;57335;52.288;6.056;2022-09-27T02:00:07;99611.91;;;9.58;100.00
69751;BME280;57335;52.288;6.056;2022-09-27T02:02:42;99607.13;;;9.55;100.00
69751;BME280;57335;52.288;6.056;2022-09-27T02:05:12;99611.22;;;9.51;100.00
69751;BME280;57335;52.288;6.056;2022-09-27T02:07:49;99607.69;;;9.46;100.00
69751;BME280;57335;52.288;6.056;2022-09-27T02:10:20;99608.63;;;9.39;100.00
69751;BME280;57335;52.288;6.056;2022-09-27T02:12:55;99617.94;;;9.35;100.00
69751;BME280;57335;52.288;6.056;2022-09-27T02:15:24;99595.09;;;9.19;100.00
69751;BME280;57335;52.288;6.056;2022-09-27T02:18:00;99608.31;;;9.24;100.00
69751;BME280;57335;52.288;6.056;2022-09-27T02:20:38;99608.16;;;9.19;100.00
69751;BME280;57335;52.288;6.056;2022-09-27T02:23:42;99608.50;;;9.11;100.00
69751;BME280;57335;52.288;6.056;2022-09-27T02:26:19;99606.00;;;9.04;100.00
69751;BME280;57335;52.288;6.056;2022-09-27T02:31:17;99614.63;;;8.93;100.00
69751;BME280;57335;52.288;6.056;2022-09-27T02:33:48;99618.13;;;8.87;100.00
69751;BME280;57335;52.288;6.056;2022-09-27T02:36:15;99620.41;;;8.83;100.00
69751;BME280;57335;52.288;6.056;2022-09-27T02:38:43;99612.53;;;8.71;100.00
69751;BME280;57335;52.288;6.056;2022-09-27T02:41:18;99606.31;;;8.72;100.00
69751;BME280;57335;52.288;6.056;2022-09-27T02:43:48;99610.94;;;8.70;100.00
69751;BME280;57335;52.288;6.056;2022-09-27T02:51:25;99607.94;;;8.55;100.00
69751;BME280;57335;52.288;6.056;2022-09-27T02:59:48;99596.69;;;8.43;100.00
69751;BME280;57335;52.288;6.056;2022-09-27T03:02:45;99597.69;;;8.42;100.00
69751;BME280;57335;52.288;6.056;2022-09-27T03:05:31;99593.00;;;8.32;100.00
69751;BME280;57335;52.288;6.056;2022-09-27T03:07:59;99594.00;;;8.31;100.00
69751;BME280;57335;52.288;6.056;2022-09-27T03:10:28;99584.66;;;8.23;100.00
69751;BME280;57335;52.288;6.056;2022-09-27T03:12:55;99597.19;;;8.33;100.00
69751;BME280;57335;52.288;6.056;2022-09-27T03:15:22;99588.63;;;8.26;100.00
69751;BME280;57335;52.288;6.056;2022-09-27T03:17:48;99596.38;;;8.32;100.00
69751;BME280;57335;52.288;6.056;2022-09-27T03:20:15;99580.59;;;8.27;100.00
69751;BME280;57335;52.288;6.056;2022-09-27T03:22:41;99603.19;;;8.33;100.00
69751;BME280;57335;52.288;6.056;2022-09-27T03:25:08;99588.41;;;8.27;100.00
69751;BME280;57335;52.288;6.056;2022-09-27T03:27:34;99597.75;;;8.35;100.00
69751;BME280;57335;52.288;6.056;2022-09-27T03:30:00;99599.78;;;8.33;100.00
69751;BME280;57335;52.288;6.056;2022-09-27T03:32:27;99591.75;;;8.34;100.00
69751;BME280;57335;52.288;6.056;2022-09-27T03:34:53;99596.97;;;8.34;100.00
69751;BME280;57335;52.288;6.056;2022-09-27T03:37:20;99602.19;;;8.34;100.00
69751;BME280;57335;52.288;6.056;2022-09-27T03:39:46;99599.22;;;8.31;100.00
69751;BME280;57335;52.288;6.056;2022-09-27T03:42:13;99599.06;;;8.26;100.00
69751;BME280;57335;52.288;6.056;2022-09-27T03:44:39;99597.50;;;8.25;100.00
69751;BME280;57335;52.288;6.056;2022-09-27T03:47:05;99581.00;;;8.12;100.00
69751;BME280;57335;52.288;6.056;2022-09-27T03:49:32;99588.81;;;8.12;100.00
69751;BME280;57335;52.288;6.056;2022-09-27T03:51:58;99600.41;;;8.16;100.00
69751;BME280;57335;52.288;6.056;2022-09-27T03:54:24;99587.72;;;8.02;100.00
69751;BME280;57335;52.288;6.056;2022-09-27T03:56:51;99598.53;;;8.05;100.00
69751;BME280;57335;52.288;6.056;2022-09-27T03:59:17;99613.75;;;8.08;100.00
69751;BME280;57335;52.288;6.056;2022-09-27T04:01:43;99625.19;;;8.07;100.00
69751;BME280;57335;52.288;6.056;2022-09-27T04:04:10;99617.09;;;7.97;100.00
69751;BME280;57335;52.288;6.056;2022-09-27T04:06:36;99617.31;;;7.95;100.00
69751;BME280;57335;52.288;6.056;2022-09-27T04:09:03;99606.53;;;7.92;100.00
69751;BME280;57335;52.288;6.056;2022-09-27T04:11:30;99626.75;;;7.96;100.00
69751;BME280;57335;52.288;6.056;2022-09-27T04:13:56;99610.34;;;7.89;100.00
69751;BME280;57335;52.288;6.056;2022-09-27T04:16:23;99613.41;;;7.86;100.00
69751;BME280;57335;52.288;6.056;2022-09-27T04:18:49;99627.63;;;7.90;100.00
69751;BME280;57335;52.288;6.056;2022-09-27T04:21:16;99623.41;;;7.89;100.00
69751;BME280;57335;52.288;6.056;2022-09-27T04:23:42;99614.88;;;7.82;100.00
69751;BME280;57335;52.288;6.056;2022-09-27T04:26:08;99603.69;;;7.75;100.00
69751;BME280;57335;52.288;6.056;2022-09-27T04:28:35;99620.09;;;7.82;100.00
69751;BME280;57335;52.288;6.056;2022-09-27T04:31:01;99625.50;;;7.81;100.00
69751;BME280;57335;52.288;6.056;2022-09-27T04:33:27;99620.72;;;7.77;100.00
69751;BME280;57335;52.288;6.056;2022-09-27T04:35:54;99616.03;;;7.68;100.00
69751;BME280;57335;52.288;6.056;2022-09-27T04:38:20;99619.84;;;7.65;100.00
69751;BME280;57335;52.288;6.056;2022-09-27T04:40:46;99633.03;;;7.70;100.00
69751;BME280;57335;52.288;6.056;2022-09-27T04:43:13;99631.88;;;7.66;100.00
69751;BME280;57335;52.288;6.056;2022-09-27T04:45:39;99633.31;;;7.62;100.00
69751;BME280;57335;52.288;6.056;2022-09-27T04:48:06;99624.47;;;7.63;100.00
69751;BME280;57335;52.288;6.056;2022-09-27T04:50:32;99638.69;;;7.67;100.00
69751;BME280;57335;52.288;6.056;2022-09-27T04:53:01;99622.44;;;7.65;100.00
69751;BME280;57335;52.288;6.056;2022-09-27T04:55:28;99648.25;;;7.73;100.00
69751;BME280;57335;52.288;6.056;2022-09-27T04:57:54;99624.84;;;7.67;100.00
69751;BME280;57335;52.288;6.056;2022-09-27T05:00:21;99637.59;;;7.75;100.00
69751;BME280;57335;52.288;6.056;2022-09-27T05:02:47;99630.22;;;7.72;100.00
69751;BME280;57335;52.288;6.056;2022-09-27T05:05:14;99635.00;;;7.75;100.00
69751;BME280;57335;52.288;6.056;2022-09-27T05:07:41;99644.63;;;7.74;100.00
69751;BME280;57335;52.288;6.056;2022-09-27T05:10:08;99634.63;;;7.71;100.00
69751;BME280;57335;52.288;6.056;2022-09-27T05:12:34;99643.69;;;7.69;100.00
69751;BME280;57335;52.288;6.056;2022-09-27T05:15:02;99646.72;;;7.66;100.00
69751;BME280;57335;52.288;6.056;2022-09-27T05:17:29;99627.94;;;7.57;100.00
69751;BME280;57335;52.288;6.056;2022-09-27T05:19:55;99635.63;;;7.52;100.00
69751;BME280;57335;52.288;6.056;2022-09-27T05:22:21;99636.06;;;7.49;100.00
69751;BME280;57335;52.288;6.056;2022-09-27T05:24:47;99634.81;;;7.51;100.00
69751;BME280;57335;52.288;6.056;2022-09-27T05:27:15;99631.91;;;7.41;100.00
69751;BME280;57335;52.288;6.056;2022-09-27T05:29:41;99644.31;;;7.46;100.00
69751;BME280;57335;52.288;6.056;2022-09-27T05:32:08;99646.09;;;7.45;100.00
69751;BME280;57335;52.288;6.056;2022-09-27T05:34:34;99632.56;;;7.36;100.00
69751;BME280;57335;52.288;6.056;2022-09-27T05:37:00;99640.59;;;7.35;100.00
69751;BME280;57335;52.288;6.056;2022-09-27T05:39:26;99641.25;;;7.30;100.00
69751;BME280;57335;52.288;6.056;2022-09-27T05:41:53;99642.47;;;7.28;100.00
69751;BME280;57335;52.288;6.056;2022-09-27T05:44:19;99637.84;;;7.30;100.00
69751;BME280;57335;52.288;6.056;2022-09-27T05:46:45;99628.47;;;7.22;100.00
69751;BME280;57335;52.288;6.056;2022-09-27T05:49:12;99645.00;;;7.34;100.00
69751;BME280;57335;52.288;6.056;2022-09-27T05:51:38;99657.25;;;7.34;100.00
69751;BME280;57335;52.288;6.056;2022-09-27T05:54:04;99647.09;;;7.26;100.00
69751;BME280;57335;52.288;6.056;2022-09-27T05:56:31;99654.84;;;7.32;100.00
69751;BME280;57335;52.288;6.056;2022-09-27T05:58:57;99652.72;;;7.23;100.00
69751;BME280;57335;52.288;6.056;2022-09-27T06:01:23;99657.59;;;7.37;100.00
69751;BME280;57335;52.288;6.056;2022-09-27T06:03:50;99658.34;;;7.70;100.00
69751;BME280;57335;52.288;6.056;2022-09-27T06:06:16;99659.75;;;8.21;100.00
69751;BME280;57335;52.288;6.056;2022-09-27T06:08:42;99671.13;;;8.75;100.00
69751;BME280;57335;52.288;6.056;2022-09-27T06:11:10;99660.31;;;9.02;100.00
69751;BME280;57335;52.288;6.056;2022-09-27T06:13:38;99662.72;;;9.15;98.13
69751;BME280;57335;52.288;6.056;2022-09-27T06:16:05;99669.66;;;9.22;95.92
69751;BME280;57335;52.288;6.056;2022-09-27T06:18:32;99668.44;;;9.24;95.60
69751;BME280;57335;52.288;6.056;2022-09-27T06:20:59;99673.44;;;9.49;97.74
69751;BME280;57335;52.288;6.056;2022-09-27T06:23:26;99678.94;;;10.00;97.12
69751;BME280;57335;52.288;6.056;2022-09-27T06:25:53;99677.00;;;10.60;97.08
69751;BME280;57335;52.288;6.056;2022-09-27T06:28:20;99682.16;;;11.00;93.26
69751;BME280;57335;52.288;6.056;2022-09-27T06:30:49;99684.84;;;11.22;92.47
69751;BME280;57335;52.288;6.056;2022-09-27T06:33:17;99692.09;;;11.32;90.21
69751;BME280;57335;52.288;6.056;2022-09-27T06:35:44;99687.25;;;11.24;88.67
69751;BME280;57335;52.288;6.056;2022-09-27T06:38:12;99700.59;;;11.22;89.64
69751;BME280;57335;52.288;6.056;2022-09-27T06:40:39;99701.00;;;11.14;90.12
69751;BME280;57335;52.288;6.056;2022-09-27T06:43:08;99701.94;;;11.08;89.80
69751;BME280;57335;52.288;6.056;2022-09-27T06:45:36;99690.28;;;10.98;89.93
69751;BME280;57335;52.288;6.056;2022-09-27T06:48:07;99694.41;;;10.94;90.56
69751;BME280;57335;52.288;6.056;2022-09-27T06:50:35;99676.97;;;10.88;91.33
69751;BME280;57335;52.288;6.056;2022-09-27T06:53:06;99692.22;;;10.91;91.35
69751;BME280;57335;52.288;6.056;2022-09-27T06:55:33;99683.25;;;10.87;91.60
69751;BME280;57335;52.288;6.056;2022-09-27T06:58:00;99692.00;;;10.93;91.75
69751;BME280;57335;52.288;6.056;2022-09-27T07:00:27;99691.06;;;10.99;92.39
69751;BME280;57335;52.288;6.056;2022-09-27T07:02:55;99687.47;;;11.05;92.29
69751;BME280;57335;52.288;6.056;2022-09-27T07:05:22;99708.47;;;11.22;91.74
69751;BME280;57335;52.288;6.056;2022-09-27T07:07:48;99710.38;;;11.27;90.87
69751;BME280;57335;52.288;6.056;2022-09-27T07:10:15;99707.44;;;11.23;89.86
69751;BME280;57335;52.288;6.056;2022-09-27T07:12:41;99705.59;;;11.24;89.81
69751;BME280;57335;52.288;6.056;2022-09-27T07:15:08;99696.31;;;11.16;90.52
69751;BME280;57335;52.288;6.056;2022-09-27T07:17:34;99697.91;;;11.17;90.61
69751;BME280;57335;52.288;6.056;2022-09-27T07:20:01;99715.78;;;11.20;89.99
69751;BME280;57335;52.288;6.056;2022-09-27T07:22:27;99703.22;;;11.05;89.98
69751;BME280;57335;52.288;6.056;2022-09-27T07:24:53;99711.41;;;11.09;90.74
69751;BME280;57335;52.288;6.056;2022-09-27T07:27:20;99714.53;;;11.23;92.08
69751;BME280;57335;52.288;6.056;2022-09-27T07:29:46;99707.69;;;11.38;92.19
69751;BME280;57335;52.288;6.056;2022-09-27T07:32:13;99700.31;;;11.74;92.90
69751;BME280;57335;52.288;6.056;2022-09-27T07:34:39;99711.84;;;12.29;90.24
69751;BME280;57335;52.288;6.056;2022-09-27T07:37:06;99722.19;;;12.90;90.07
69751;BME280;57335;52.288;6.056;2022-09-27T07:39:32;99700.31;;;13.44;89.62
69751;BME280;57335;52.288;6.056;2022-09-27T07:41:59;99714.13;;;14.14;87.29
69751;BME280;57335;52.288;6.056;2022-09-27T07:44:25;99714.06;;;14.62;81.70
69751;BME280;57335;52.288;6.056;2022-09-27T07:46:51;99719.09;;;14.79;81.22
69751;BME280;57335;52.288;6.056;2022-09-27T07:49:18;99711.19;;;14.69;79.31
69751;BME280;57335;52.288;6.056;2022-09-27T07:51:44;99704.75;;;14.44;78.18
69751;BME280;57335;52.288;6.056;2022-09-27T07:54:10;99719.72;;;14.28;78.49
69751;BME280;57335;52.288;6.056;2022-09-27T07:56:37;99732.59;;;14.14;79.33
69751;BME280;57335;52.288;6.056;2022-09-27T07:59:03;99734.09;;;14.00;78.44
69751;BME280;57335;52.288;6.056;2022-09-27T08:01:29;99735.84;;;13.84;79.46
69751;BME280;57335;52.288;6.056;2022-09-27T08:03:56;99722.03;;;13.67;80.06
69751;BME280;57335;52.288;6.056;2022-09-27T08:06:22;99738.31;;;13.59;80.34
69751;BME280;57335;52.288;6.056;2022-09-27T08:08:49;99735.31;;;13.45;80.90
69751;BME280;57335;52.288;6.056;2022-09-27T08:11:16;99731.56;;;13.35;81.35
69751;BME280;57335;52.288;6.056;2022-09-27T08:13:44;99733.00;;;13.21;81.96
69751;BME280;57335;52.288;6.056;2022-09-27T08:16:11;99742.47;;;13.22;82.70
69751;BME280;57335;52.288;6.056;2022-09-27T08:18:37;99743.53;;;13.21;83.29
69751;BME280;57335;52.288;6.056;2022-09-27T08:21:03;99748.59;;;13.28;83.83
69751;BME280;57335;52.288;6.056;2022-09-27T08:23:30;99746.31;;;13.36;83.59
69751;BME280;57335;52.288;6.056;2022-09-27T08:25:56;99754.31;;;13.52;84.07
69751;BME280;57335;52.288;6.056;2022-09-27T08:28:23;99751.28;;;13.70;83.57
69751;BME280;57335;52.288;6.056;2022-09-27T08:30:49;99755.41;;;13.99;83.11
69751;BME280;57335;52.288;6.056;2022-09-27T08:33:16;99764.25;;;14.25;83.86
69751;BME280;57335;52.288;6.056;2022-09-27T08:35:42;99757.84;;;14.58;83.06
69751;BME280;57335;52.288;6.056;2022-09-27T08:38:09;99766.38;;;14.96;80.95
69751;BME280;57335;52.288;6.056;2022-09-27T08:43:26;99775.38;;;15.15;78.62
69751;BME280;57335;52.288;6.056;2022-09-27T08:46:14;99762.44;;;15.04;78.18
69751;BME280;57335;52.288;6.056;2022-09-27T08:48:51;99763.47;;;14.98;77.42
69751;BME280;57335;52.288;6.056;2022-09-27T08:51:21;99779.03;;;14.94;77.63
69751;BME280;57335;52.288;6.056;2022-09-27T08:54:01;99773.44;;;14.80;77.28
69751;BME280;57335;52.288;6.056;2022-09-27T08:56:31;99772.88;;;14.63;77.77
69751;BME280;57335;52.288;6.056;2022-09-27T08:59:18;99770.66;;;14.44;77.75
69751;BME280;57335;52.288;6.056;2022-09-27T09:01:45;99772.69;;;14.22;78.24
69751;BME280;57335;52.288;6.056;2022-09-27T09:04:22;99777.81;;;13.96;78.75
69751;BME280;57335;52.288;6.056;2022-09-27T09:18:06;99775.91;;;14.34;78.54
69751;BME280;57335;52.288;6.056;2022-09-27T09:20:52;99781.66;;;14.26;78.90
69751;BME280;57335;52.288;6.056;2022-09-27T09:23:46;99783.72;;;14.13;79.34
69751;BME280;57335;52.288;6.056;2022-09-27T09:29:03;99779.13;;;13.99;78.79
69751;BME280;57335;52.288;6.056;2022-09-27T09:31:38;99780.72;;;14.00;81.20
69751;BME280;57335;52.288;6.056;2022-09-27T09:34:21;99771.28;;;14.09;80.45
69751;BME280;57335;52.288;6.056;2022-09-27T09:37:01;99774.81;;;14.30;80.32
69751;BME280;57335;52.288;6.056;2022-09-27T09:39:34;99765.91;;;14.41;78.97
69751;BME280;57335;52.288;6.056;2022-09-27T09:42:32;99751.72;;;14.47;78.64
69751;BME280;57335;52.288;6.056;2022-09-27T09:45:14;99766.28;;;14.60;76.19
69751;BME280;57335;52.288;6.056;2022-09-27T09:47:47;99769.72;;;14.66;77.98
69751;BME280;57335;52.288;6.056;2022-09-27T09:50:21;99776.81;;;14.65;76.06
69751;BME280;57335;52.288;6.056;2022-09-27T09:52:55;99776.81;;;14.65;77.21
69751;BME280;57335;52.288;6.056;2022-09-27T09:55:25;99762.25;;;14.52;76.22
69751;BME280;57335;52.288;6.056;2022-09-27T10:00:45;99767.78;;;14.51;78.14
69751;BME280;57335;52.288;6.056;2022-09-27T10:03:12;99768.06;;;14.49;77.98
69751;BME280;57335;52.288;6.056;2022-09-27T10:05:42;99773.34;;;14.49;78.39
69751;BME280;57335;52.288;6.056;2022-09-27T10:08:21;99773.34;;;14.54;79.41
69751;BME280;57335;52.288;6.056;2022-09-27T10:10:48;99773.34;;;14.54;78.30
69751;BME280;57335;52.288;6.056;2022-09-27T10:13:16;99766.50;;;14.53;78.70
69751;BME280;57335;52.288;6.056;2022-09-27T10:16:04;99781.31;;;14.65;79.21
69751;BME280;57335;52.288;6.056;2022-09-27T10:18:35;99771.00;;;14.58;76.76
69751;BME280;57335;52.288;6.056;2022-09-27T10:21:06;99772.06;;;14.62;77.34
69751;BME280;57335;52.288;6.056;2022-09-27T10:23:35;99766.00;;;14.56;78.00
69751;BME280;57335;52.288;6.056;2022-09-27T10:26:04;99775.50;;;14.58;77.66
69751;BME280;57335;52.288;6.056;2022-09-27T10:31:06;99764.88;;;14.47;77.16
69751;BME280;57335;52.288;6.056;2022-09-27T10:33:34;99768.00;;;14.39;77.17
69751;BME280;57335;52.288;6.056;2022-09-27T10:36:02;99777.47;;;14.35;77.73
69751;BME280;57335;52.288;6.056;2022-09-27T10:38:35;99777.41;;;14.25;77.99
69751;BME280;57335;52.288;6.056;2022-09-27T10:41:25;99774.78;;;14.20;78.26
69751;BME280;57335;52.288;6.056;2022-09-27T10:43:51;99773.94;;;14.14;78.75
69751;BME280;57335;52.288;6.056;2022-09-27T10:46:30;99763.91;;;14.06;77.41
69751;BME280;57335;52.288;6.056;2022-09-27T10:49:31;99777.91;;;14.11;77.79
69751;BME280;57335;52.288;6.056;2022-09-27T10:52:00;99772.06;;;14.04;78.06
69751;BME280;57335;52.288;6.056;2022-09-27T10:54:29;99781.28;;;14.07;78.27
69751;BME280;57335;52.288;6.056;2022-09-27T10:57:04;99781.28;;;14.07;77.30
69751;BME280;57335;52.288;6.056;2022-09-27T10:59:39;99776.00;;;14.02;76.96
69751;BME280;57335;52.288;6.056;2022-09-27T11:02:19;99771.41;;;13.87;73.54
69751;BME280;57335;52.288;6.056;2022-09-27T11:05:06;99778.28;;;13.88;76.74
69751;BME280;57335;52.288;6.056;2022-09-27T11:07:51;99775.66;;;13.93;75.97
69751;BME280;57335;52.288;6.056;2022-09-27T11:10:34;99791.56;;;14.03;77.05
69751;BME280;57335;52.288;6.056;2022-09-27T11:13:16;99791.06;;;14.11;76.65
69751;BME280;57335;52.288;6.056;2022-09-27T11:24:02;99779.41;;;14.02;76.70
69751;BME280;57335;52.288;6.056;2022-09-27T11:26:56;99793.13;;;14.04;76.73
69751;BME280;57335;52.288;6.056;2022-09-27T11:29:47;99781.22;;;13.96;77.77
69751;BME280;57335;52.288;6.056;2022-09-27T11:32:27;99781.16;;;13.86;76.02
69751;BME280;57335;52.288;6.056;2022-09-27T11:37:49;99783.47;;;13.77;76.38
69751;BME280;57335;52.288;6.056;2022-09-27T11:43:41;99798.56;;;13.55;78.19
69751;BME280;57335;52.288;6.056;2022-09-27T11:46:28;99801.09;;;13.45;78.76
69751;BME280;57335;52.288;6.056;2022-09-27T11:55:08;99790.91;;;13.26;80.98
69751;BME280;57335;52.288;6.056;2022-09-27T11:57:52;99776.91;;;13.21;81.47
69751;BME280;57335;52.288;6.056;2022-09-27T12:00:22;99772.47;;;13.21;80.34
69751;BME280;57335;52.288;6.056;2022-09-27T12:06:20;99776.56;;;13.34;81.26
69751;BME280;57335;52.288;6.056;2022-09-27T12:09:00;99775.25;;;13.36;82.12
69751;BME280;57335;52.288;6.056;2022-09-27T12:14:04;99763.78;;;13.53;81.01
69751;BME280;57335;52.288;6.056;2022-09-27T12:16:33;99759.38;;;13.59;80.96
69751;BME280;57335;52.288;6.056;2022-09-27T12:19:02;99765.03;;;13.77;79.40
69751;BME280;57335;52.288;6.056;2022-09-27T12:21:30;99766.97;;;13.87;78.43
69751;BME280;57335;52.288;6.056;2022-09-27T12:23:59;99774.91;;;13.98;79.80
69751;BME280;57335;52.288;6.056;2022-09-27T12:26:32;99764.66;;;14.01;78.51
69751;BME280;57335;52.288;6.056;2022-09-27T12:29:08;99763.31;;;13.99;78.27
69751;BME280;57335;52.288;6.056;2022-09-27T12:31:43;99770.19;;;14.00;79.58
69751;BME280;57335;52.288;6.056;2022-09-27T12:34:32;99774.66;;;13.99;79.94
69751;BME280;57335;52.288;6.056;2022-09-27T12:37:33;99773.84;;;13.93;80.19
69751;BME280;57335;52.288;6.056;2022-09-27T12:40:14;99770.91;;;13.90;79.87
69751;BME280;57335;52.288;6.056;2022-09-27T12:42:54;99760.63;;;13.83;79.24
69751;BME280;57335;52.288;6.056;2022-09-27T12:48:15;99781.63;;;13.78;78.23
69751;BME280;57335;52.288;6.056;2022-09-27T12:50:50;99771.28;;;13.66;78.14
69751;BME280;57335;52.288;6.056;2022-09-27T12:53:24;99774.97;;;13.65;77.31
69751;BME280;57335;52.288;6.056;2022-09-27T12:56:08;99782.50;;;13.51;77.39
69751;BME280;57335;52.288;6.056;2022-09-27T13:01:44;99773.28;;;13.27;78.86
69751;BME280;57335;52.288;6.056;2022-09-27T13:10:39;99781.31;;;13.10;78.83
69751;BME280;57335;52.288;6.056;2022-09-27T13:13:11;99762.44;;;12.91;78.14
69751;BME280;57335;52.288;6.056;2022-09-27T13:15:41;99771.63;;;12.88;78.93
69751;BME280;57335;52.288;6.056;2022-09-27T13:21:03;99767.66;;;12.86;80.35
69751;BME280;57335;52.288;6.056;2022-09-27T13:26:01;99772.41;;;12.89;79.92
69751;BME280;57335;52.288;6.056;2022-09-27T13:30:55;99776.63;;;12.90;79.47
69751;BME280;57335;52.288;6.056;2022-09-27T13:33:44;99784.28;;;12.91;78.89
69751;BME280;57335;52.288;6.056;2022-09-27T13:39:14;99776.28;;;12.81;79.25
69751;BME280;57335;52.288;6.056;2022-09-27T13:47:30;99798.16;;;12.87;79.91
69751;BME280;57335;52.288;6.056;2022-09-27T13:50:38;99793.16;;;12.85;79.06
69751;BME280;57335;52.288;6.056;2022-09-27T13:53:38;99797.31;;;12.81;79.19
69751;BME280;57335;52.288;6.056;2022-09-27T13:56:05;99784.22;;;12.64;79.34
69751;BME280;57335;52.288;6.056;2022-09-27T13:58:56;99786.97;;;12.52;79.50
69751;BME280;57335;52.288;6.056;2022-09-27T14:01:43;99796.72;;;12.52;80.11
69751;BME280;57335;52.288;6.056;2022-09-27T14:04:13;99784.63;;;12.51;80.73
69751;BME280;57335;52.288;6.056;2022-09-27T14:06:44;99784.22;;;12.42;80.01
69751;BME280;57335;52.288;6.056;2022-09-27T14:09:20;99790.28;;;12.43;79.92
69751;BME280;57335;52.288;6.056;2022-09-27T14:12:04;99796.50;;;12.36;79.57
69751;BME280;57335;52.288;6.056;2022-09-27T14:14:34;99787.78;;;12.31;79.49
69751;BME280;57335;52.288;6.056;2022-09-27T14:17:06;99777.06;;;12.15;79.19
69751;BME280;57335;52.288;6.056;2022-09-27T14:19:39;99782.31;;;12.15;78.69
69751;BME280;57335;52.288;6.056;2022-09-27T14:22:19;99780.97;;;12.13;79.22
69751;BME280;57335;52.288;6.056;2022-09-27T14:24:53;99771.34;;;12.02;78.72
69751;BME280;57335;52.288;6.056;2022-09-27T14:27:29;99775.88;;;12.06;79.45
69751;BME280;57335;52.288;6.056;2022-09-27T14:29:58;99769.53;;;12.02;80.10
69751;BME280;57335;52.288;6.056;2022-09-27T14:32:33;99771.13;;;12.03;79.52
69751;BME280;57335;52.288;6.056;2022-09-27T14:35:13;99770.56;;;12.01;78.92
69751;BME280;57335;52.288;6.056;2022-09-27T14:37:40;99780.53;;;11.99;80.23
69751;BME280;57335;52.288;6.056;2022-09-27T14:40:18;99781.78;;;11.96;80.15
69751;BME280;57335;52.288;6.056;2022-09-27T14:42:45;99768.75;;;11.85;80.42
69751;BME280;57335;52.288;6.056;2022-09-27T14:47:49;99769.63;;;11.90;80.01
69751;BME280;57335;52.288;6.056;2022-09-27T14:50:27;99760.31;;;11.83;80.04
69751;BME280;57335;52.288;6.056;2022-09-27T14:52:55;99763.00;;;11.88;79.38
69751;BME280;57335;52.288;6.056;2022-09-27T14:55:24;99769.88;;;11.89;79.61
69751;BME280;57335;52.288;6.056;2022-09-27T14:57:53;99766.75;;;11.92;79.56
69751;BME280;57335;52.288;6.056;2022-09-27T15:00:23;99763.56;;;11.90;78.48
69751;BME280;57335;52.288;6.056;2022-09-27T15:02:51;99763.66;;;11.95;78.81
69751;BME280;57335;52.288;6.056;2022-09-27T15:05:27;99751.22;;;11.90;78.33
69751;BME280;57335;52.288;6.056;2022-09-27T15:07:55;99756.50;;;11.90;78.47
69751;BME280;57335;52.288;6.056;2022-09-27T15:10:24;99760.16;;;11.89;79.14
69751;BME280;57335;52.288;6.056;2022-09-27T15:12:53;99768.47;;;11.86;78.29
69751;BME280;57335;52.288;6.056;2022-09-27T15:15:25;99757.91;;;11.81;78.53
69751;BME280;57335;52.288;6.056;2022-09-27T15:17:52;99765.56;;;11.83;78.96
69751;BME280;57335;52.288;6.056;2022-09-27T15:22:49;99761.50;;;11.75;80.21
69751;BME280;57335;52.288;6.056;2022-09-27T15:25:19;99752.25;;;11.72;79.77